Time;durP1;ratioP1;P1;durP2;ratioP2;P2;SDS_P1;SDS_P2;PMS_P1;PMS_P2;Temp;Humidity;BMP_temperature;BMP_pressure;BME280_temperature;BME280_humidity;BME280_pressure;Samples;Min_cycle;Max_cycle;Signal;HPM_P1;HPM_P2
2024/03/10 00:01:28;;;;;;;0.90;0.90;;;;;;;11.14;39.89;92066.78;4993629;28;20701;-85
2024/03/10 00:04:07;;;;;;;1.20;0.80;;;;;;;11.14;39.93;92069.34;4994154;28;20274;-86
2024/03/10 00:09:19;;;;;;;1.30;0.80;;;;;;;11.10;39.74;92061.38;4985230;28;20211;-86
2024/03/10 00:11:59;;;;;;;0.87;0.80;;;;;;;11.13;39.93;92068.56;4998406;28;20194;-85
2024/03/10 00:14:28;;;;;;;0.67;0.67;;;;;;;11.16;39.65;92070.59;5014075;28;20214;-85
2024/03/10 00:17:09;;;;;;;1.37;0.90;;;;;;;11.13;40.24;92083.25;5012840;28;20202;-84
2024/03/10 00:19:48;;;;;;;0.90;0.90;;;;;;;11.16;40.26;92090.44;5012761;28;20241;-85
2024/03/10 00:22:24;;;;;;;1.57;0.90;;;;;;;11.13;40.28;92109.75;5012609;28;20272;-84
2024/03/10 00:24:56;;;;;;;0.73;0.73;;;;;;;11.11;40.46;92104.09;5012193;28;20578;-86
2024/03/10 00:27:27;;;;;;;0.80;0.80;;;;;;;11.10;40.48;92112.88;5013176;28;20277;-85
2024/03/10 00:29:53;;;;;;;0.90;0.90;;;;;;;11.15;40.62;92119.78;5012966;28;20668;-84
2024/03/10 00:32:28;;;;;;;1.50;1.00;;;;;;;11.14;40.72;92123.41;5013099;28;20214;-85
2024/03/10 00:35:06;;;;;;;1.10;1.07;;;;;;;11.12;40.85;92133.19;5012676;28;20202;-85
2024/03/10 00:37:33;;;;;;;1.40;1.10;;;;;;;11.20;40.95;92140.34;5012985;28;20202;-85
2024/03/10 00:40:15;;;;;;;;;;;;;;;;;;;;;
2024/03/10 00:42:48;;;;;;;0.80;0.80;;;;;;;11.29;40.88;92141.34;5013307;28;20237;-85
2024/03/10 00:45:25;;;;;;;1.10;1.00;;;;;;;11.23;40.83;92137.25;5013948;28;20202;-86
2024/03/10 00:47:59;;;;;;;1.10;1.00;;;;;;;11.16;40.85;92139.34;5013394;28;20217;-85
2024/03/10 00:50:33;;;;;;;0.90;0.90;;;;;;;11.13;40.95;92132.94;4992707;28;20252;-85
2024/03/10 00:53:02;;;;;;;0.90;0.87;;;;;;;11.16;40.87;92139.34;4993813;28;20227;-85
2024/03/10 00:55:32;;;;;;;1.03;0.93;;;;;;;11.16;41.00;92127.22;4992862;28;20206;-85
2024/03/10 00:58:04;;;;;;;0.60;0.60;;;;;;;11.09;40.66;92124.19;4995118;28;20673;-85
2024/03/10 01:00:35;;;;;;;0.87;0.80;;;;;;;11.11;41.03;92132.41;4995776;28;20213;-85
2024/03/10 01:03:16;;;;;;;1.07;0.87;;;;;;;11.11;40.72;92106.69;4995865;28;20319;-85
2024/03/10 01:05:56;;;;;;;0.80;0.80;;;;;;;11.10;41.00;92122.38;4996084;28;20230;-85
2024/03/10 01:08:29;;;;;;;1.13;0.70;;;;;;;11.10;40.72;92125.72;4996724;28;20564;-84
2024/03/10 01:11:02;;;;;;;3.53;0.90;;;;;;;11.13;41.10;92130.34;4996128;28;20333;-85
2024/03/10 01:13:29;;;;;;;1.00;0.80;;;;;;;11.19;41.02;92131.09;5014489;28;20736;-83
2024/03/10 01:15:58;;;;;;;0.97;0.87;;;;;;;11.20;40.96;92130.81;5015381;28;20202;-85
2024/03/10 01:18:24;;;;;;;1.57;0.90;;;;;;;11.22;41.06;92125.41;5016380;28;20202;-85
2024/03/10 01:21:03;;;;;;;0.90;0.90;;;;;;;11.25;41.16;92130.03;5016801;28;20203;-83
2024/03/10 01:26:20;;;;;;;1.10;1.00;;;;;;;11.22;40.97;92115.13;5015637;28;20210;-84
2024/03/10 01:28:52;;;;;;;0.83;0.83;;;;;;;11.07;41.37;92114.16;5016927;28;20210;-84
2024/03/10 01:31:22;;;;;;;0.97;0.90;;;;;;;11.11;41.18;92118.78;5016805;28;20208;-85
2024/03/10 01:33:52;;;;;;;0.87;0.87;;;;;;;11.05;41.27;92100.00;5015365;28;20228;-85
2024/03/10 01:36:24;;;;;;;1.10;1.00;;;;;;;10.98;41.28;92086.66;5015530;28;20203;-85
2024/03/10 01:38:53;;;;;;;1.93;0.90;;;;;;;11.01;41.19;92110.06;5014954;28;20297;-85
2024/03/10 01:41:22;;;;;;;0.97;0.90;;;;;;;11.03;41.05;92110.56;5015838;28;20277;-84
2024/03/10 01:43:56;;;;;;;1.10;1.00;;;;;;;11.01;41.13;92099.00;5015000;28;20233;-84
2024/03/10 01:46:24;;;;;;;0.70;0.70;;;;;;;10.98;41.39;92094.38;5000293;28;20576;-85
2024/03/10 01:48:52;;;;;;;0.67;0.67;;;;;;;11.00;41.24;92089.72;4995281;28;20283;-85
2024/03/10 01:51:24;;;;;;;0.90;0.90;;;;;;;11.03;41.16;92082.25;4993621;28;20203;-84
2024/03/10 01:54:00;;;;;;;0.80;0.80;;;;;;;11.03;40.91;92081.47;4995131;28;20223;-85
2024/03/10 01:56:30;;;;;;;2.40;0.83;;;;;;;11.00;41.28;92074.28;4995382;28;20290;-85
2024/03/10 01:58:57;;;;;;;0.70;0.70;;;;;;;11.05;41.28;92087.91;4994530;28;20298;-85
2024/03/10 02:01:27;;;;;;;1.00;0.90;;;;;;;10.99;41.42;92076.09;4994984;28;20210;-84
2024/03/10 02:03:58;;;;;;;1.10;1.00;;;;;;;10.97;41.26;92073.00;4995309;28;20227;-84
2024/03/10 02:06:26;;;;;;;0.80;0.80;;;;;;;10.93;41.57;92069.44;4995479;28;20210;-84
2024/03/10 02:08:54;;;;;;;1.37;1.10;;;;;;;10.88;41.32;92055.81;4994144;28;20694;-85
2024/03/10 02:11:21;;;;;;;1.00;0.90;;;;;;;10.87;41.41;92067.16;4995055;28;20235;-85
2024/03/10 02:13:48;;;;;;;0.90;0.90;;;;;;;10.85;41.57;92064.06;4994355;28;20262;-85
2024/03/10 02:16:15;;;;;;;1.20;1.10;;;;;;;10.84;41.40;92059.94;4994519;28;20897;-85
2024/03/10 02:18:42;;;;;;;1.20;1.10;;;;;;;10.85;41.95;92076.94;4995234;28;20303;-85
2024/03/10 02:21:08;;;;;;;1.50;1.00;;;;;;;10.89;41.65;92065.84;4995112;28;20208;-85
2024/03/10 02:23:40;;;;;;;9.67;1.30;;;;;;;10.96;41.55;92070.72;4994263;28;20227;-85
2024/03/10 02:26:08;;;;;;;1.23;1.13;;;;;;;10.98;41.49;92071.97;4994961;28;20227;-85
2024/03/10 02:28:36;;;;;;;2.33;1.10;;;;;;;11.02;41.40;92060.13;4994479;28;20207;-85
2024/03/10 02:47:27;;;;;;;0.80;0.80;;;;;;;11.19;41.33;92059.00;4994700;28;20265;-85
2024/03/10 02:49:54;;;;;;;0.80;0.80;;;;;;;11.19;41.71;92053.84;4994057;28;20203;-85
2024/03/10 02:52:20;;;;;;;1.03;0.70;;;;;;;11.13;41.32;92052.38;4994345;28;20224;-85
2024/03/10 02:54:46;;;;;;;0.80;0.77;;;;;;;11.10;41.48;92050.31;4994094;28;20249;-85
2024/03/10 02:57:14;;;;;;;0.77;0.77;;;;;;;11.12;41.60;92046.44;4994042;28;20269;-85
2024/03/10 02:59:40;;;;;;;0.90;0.90;;;;;;;11.08;41.43;92046.19;4993868;28;20207;-84
2024/03/10 03:02:08;;;;;;;1.30;0.90;;;;;;;11.11;41.40;92041.56;4993661;28;20235;-85
2024/03/10 03:04:34;;;;;;;0.87;0.70;;;;;;;11.06;41.68;92050.06;4993532;28;20203;-85
2024/03/10 03:07:01;;;;;;;0.73;0.73;;;;;;;11.12;41.62;92067.03;4994446;28;20207;-84
2024/03/10 03:09:28;;;;;;;0.83;0.83;;;;;;;11.09;41.89;92059.84;4993732;28;20688;-85
2024/03/10 03:11:54;;;;;;;0.70;0.70;;;;;;;11.04;41.74;92052.13;4993988;28;20760;-85
2024/03/10 03:14:22;;;;;;;0.60;0.60;;;;;;;11.04;41.91;92070.94;4993470;28;20311;-85
2024/03/10 03:16:49;;;;;;;0.80;0.80;;;;;;;10.95;41.97;92061.47;4993584;28;20208;-84
2024/03/10 03:19:15;;;;;;;1.20;0.80;;;;;;;10.95;42.19;92062.25;4992998;28;20235;-84
2024/03/10 03:21:42;;;;;;;0.63;0.63;;;;;;;10.88;42.34;92068.69;4992742;28;20227;-85
2024/03/10 03:24:09;;;;;;;0.90;0.80;;;;;;;10.88;42.19;92066.88;4992959;28;20333;-84
2024/03/10 03:26:36;;;;;;;1.00;0.90;;;;;;;10.99;42.11;92067.59;4992638;28;20208;-85
2024/03/10 03:29:04;;;;;;;0.73;0.73;;;;;;;11.09;42.18;92083.00;4993138;28;20223;-85
2024/03/10 03:31:32;;;;;;;1.00;0.90;;;;;;;11.15;41.99;92068.31;4993184;28;20211;-84
2024/03/10 03:33:58;;;;;;;0.80;0.80;;;;;;;11.05;42.09;92044.16;4992122;28;20660;-85
2024/03/10 03:36:25;;;;;;;0.83;0.80;;;;;;;11.04;41.94;92044.41;4993002;28;20203;-85
2024/03/10 03:38:51;;;;;;;0.80;0.80;;;;;;;11.07;41.90;92052.38;4992855;28;20226;-85
2024/03/10 03:41:18;;;;;;;0.70;0.70;;;;;;;11.10;42.37;92060.63;4992315;28;20624;-84
2024/03/10 03:43:45;;;;;;;0.87;0.80;;;;;;;11.05;42.04;92043.38;4992884;28;20318;-86
2024/03/10 03:46:11;;;;;;;0.70;0.70;;;;;;;10.99;41.87;92039.28;4993050;28;20227;-85
2024/03/10 03:48:39;;;;;;;0.80;0.80;;;;;;;11.00;42.19;92043.41;4992446;28;20234;-84
2024/03/10 03:51:06;;;;;;;0.80;0.80;;;;;;;10.86;42.48;92047.59;4992860;28;20226;-85
2024/03/10 03:53:32;;;;;;;1.47;0.83;;;;;;;10.82;42.39;92046.59;4992553;28;20462;-85
2024/03/10 03:55:59;;;;;;;1.00;0.73;;;;;;;10.76;42.64;92057.94;4993030;28;20242;-84
2024/03/10 03:58:25;;;;;;;1.17;0.80;;;;;;;10.78;42.33;92051.47;4992780;28;20328;-85
2024/03/10 04:00:52;;;;;;;0.83;0.80;;;;;;;10.80;42.56;92043.50;4992198;28;20254;-85
2024/03/10 04:03:18;;;;;;;0.80;0.80;;;;;;;10.79;42.80;92050.44;4992110;28;20227;-84
2024/03/10 04:05:46;;;;;;;1.07;0.80;;;;;;;10.72;43.02;92057.69;4992265;28;20258;-85
2024/03/10 04:08:14;;;;;;;1.47;0.90;;;;;;;10.69;42.81;92056.41;4992319;28;20254;-85
2024/03/10 04:10:40;;;;;;;1.47;0.80;;;;;;;10.76;43.09;92063.88;4991794;28;20214;-84
2024/03/10 04:13:07;;;;;;;1.77;0.93;;;;;;;10.76;43.05;92063.88;4992376;28;20246;-85
2024/03/10 04:15:35;;;;;;;1.57;1.00;;;;;;;10.83;42.84;92059.19;4992272;28;20203;-86
2024/03/10 04:18:04;;;;;;;0.70;0.70;;;;;;;10.83;42.99;92055.84;4992354;28;20208;-84
2024/03/10 04:20:31;;;;;;;1.00;0.90;;;;;;;10.82;43.35;92078.22;4992275;28;20218;-84
2024/03/10 04:22:59;;;;;;;0.80;0.80;;;;;;;10.88;43.52;92097.78;4992305;28;20290;-85
2024/03/10 04:25:25;;;;;;;1.00;0.70;;;;;;;10.99;44.02;92129.38;4991453;28;20206;-84
2024/03/10 04:27:52;;;;;;;0.73;0.73;;;;;;;11.03;43.99;92140.69;4992063;28;20580;-85
2024/03/10 04:30:19;;;;;;;1.00;0.90;;;;;;;11.07;43.96;92141.69;4991495;28;20200;-84
2024/03/10 04:32:45;;;;;;;0.80;0.80;;;;;;;11.05;44.57;92161.78;4991371;28;20342;-85
2024/03/10 04:35:12;;;;;;;0.70;0.70;;;;;;;11.04;44.61;92173.09;4990896;28;20203;-85
2024/03/10 04:37:38;;;;;;;0.70;0.70;;;;;;;11.03;44.11;92143.25;4991800;28;20748;-85
2024/03/10 04:40:10;;;;;;;1.13;0.90;;;;;;;11.01;44.21;92128.06;4991617;28;20208;-84
2024/03/10 04:42:38;;;;;;;0.90;0.90;;;;;;;11.00;43.87;92097.44;4991354;28;20227;-85
2024/03/10 04:45:04;;;;;;;0.83;0.70;;;;;;;10.95;43.32;92054.50;4991026;28;20238;-84
2024/03/10 04:47:31;;;;;;;1.00;0.80;;;;;;;10.81;43.59;92045.03;4991497;28;20214;-84
2024/03/10 04:49:57;;;;;;;0.80;0.80;;;;;;;10.73;43.81;92065.16;4990890;28;20203;-84
2024/03/10 04:52:24;;;;;;;0.83;0.80;;;;;;;10.75;44.15;92064.91;4990688;28;20227;-85
2024/03/10 04:54:50;;;;;;;0.80;0.80;;;;;;;10.78;43.95;92050.72;4991243;28;20463;-84
2024/03/10 04:57:19;;;;;;;0.70;0.70;;;;;;;10.73;44.05;92034.28;4991641;28;20203;-84
2024/03/10 04:59:45;;;;;;;0.80;0.80;;;;;;;10.74;44.64;92065.94;4991998;28;20207;-84
2024/03/10 05:02:12;;;;;;;0.80;0.80;;;;;;;10.68;45.62;92133.84;4991566;28;20282;-84
2024/03/10 05:04:38;;;;;;;0.67;0.67;;;;;;;10.65;45.79;92150.56;4991732;28;20199;-85
2024/03/10 05:07:05;;;;;;;0.97;0.70;;;;;;;10.64;46.13;92163.69;4991187;28;20299;-85
2024/03/10 05:09:31;;;;;;;0.80;0.80;;;;;;;10.65;46.40;92160.09;4990935;28;20789;-85
2024/03/10 05:11:58;;;;;;;0.70;0.70;;;;;;;10.39;46.19;92131.09;4990123;28;20204;-85
2024/03/10 05:14:25;;;;;;;0.80;0.80;;;;;;;10.42;46.39;92150.34;4990563;28;20573;-85
2024/03/10 05:16:52;;;;;;;0.77;0.70;;;;;;;10.42;46.34;92156.25;4990469;28;20206;-84
2024/03/10 05:19:17;;;;;;;0.90;0.90;;;;;;;10.36;46.13;92136.75;4990905;28;20203;-84
2024/03/10 05:21:46;;;;;;;0.80;0.80;;;;;;;10.39;45.87;92136.97;4990873;28;20199;-85
2024/03/10 05:24:12;;;;;;;1.00;0.90;;;;;;;10.38;45.55;92116.69;4990303;28;20323;-85
2024/03/10 05:26:39;;;;;;;0.77;0.77;;;;;;;10.38;46.09;92165.56;4990806;28;20246;-85
2024/03/10 05:29:05;;;;;;;1.10;1.00;;;;;;;10.43;46.33;92170.66;4991238;28;20306;-84
2024/03/10 05:31:33;;;;;;;1.73;1.20;;;;;;;10.50;46.70;92221.84;4991508;28;20206;-85
2024/03/10 05:34:03;;;;;;;1.17;1.00;;;;;;;10.53;46.85;92240.09;4990146;28;20244;-85
2024/03/10 05:36:30;;;;;;;1.03;0.93;;;;;;;10.56;46.47;92228.53;4991830;28;20626;-85
2024/03/10 05:38:57;;;;;;;5.20;1.20;;;;;;;10.52;46.98;92248.84;4991795;28;20203;-85
2024/03/10 05:41:23;;;;;;;1.77;1.53;;;;;;;10.47;47.33;92240.34;4991669;28;20214;-84
2024/03/10 05:43:52;;;;;;;2.00;1.40;;;;;;;10.31;47.03;92240.34;4992173;28;20682;-84
2024/03/10 05:46:19;;;;;;;3.93;0.87;;;;;;;10.24;46.98;92234.69;4994839;28;20207;-85
2024/03/10 05:48:48;;;;;;;2.23;1.00;;;;;;;10.32;46.94;92236.00;4994083;28;20207;-85
2024/03/10 05:51:14;;;;;;;1.00;0.90;;;;;;;10.30;46.14;92187.41;4994648;28;20231;-84
2024/03/10 05:53:41;;;;;;;0.60;0.60;;;;;;;10.30;46.21;92192.53;4994254;28;20223;-84
2024/03/10 05:56:08;;;;;;;1.27;0.87;;;;;;;10.39;46.59;92216.69;4994542;28;20270;-84
2024/03/10 05:58:38;;;;;;;1.13;0.80;;;;;;;10.48;46.27;92205.91;4995127;28;20211;-84
2024/03/10 06:01:04;;;;;;;0.90;0.80;;;;;;;10.56;46.60;92238.81;4994519;28;20200;-85
2024/03/10 06:03:31;;;;;;;1.07;0.90;;;;;;;10.61;47.06;92262.72;4994530;28;20276;-84
2024/03/10 06:05:59;;;;;;;1.97;0.90;;;;;;;10.65;47.14;92284.34;4994546;28;20215;-85
2024/03/10 06:08:25;;;;;;;1.27;1.17;;;;;;;10.68;47.75;92295.91;4994175;28;20200;-84
2024/03/10 06:10:52;;;;;;;1.00;0.90;;;;;;;10.69;47.93;92300.03;4994580;28;20207;-85
2024/03/10 06:13:18;;;;;;;1.60;1.20;;;;;;;10.68;48.11;92337.84;4993692;28;20743;-85
2024/03/10 06:15:45;;;;;;;1.60;1.30;;;;;;;10.66;48.43;92346.84;4994348;28;20203;-85
2024/03/10 06:18:21;;;;;;;2.77;1.47;;;;;;;10.61;48.45;92336.53;4994710;28;20942;-84
2024/03/10 06:26:16;;;;;;;1.87;1.13;;;;;;;10.40;48.91;92361.44;4994031;28;20202;-84
2024/03/10 06:28:42;;;;;;;3.03;0.97;;;;;;;10.34;48.83;92381.25;4995113;28;20271;-85
2024/03/10 06:31:09;;;;;;;1.30;1.00;;;;;;;10.33;48.36;92328.28;4994310;28;20208;-85
2024/03/10 06:33:38;;;;;;;1.00;0.83;;;;;;;10.26;48.00;92289.19;4992888;28;20227;-85
2024/03/10 06:36:08;;;;;;;1.00;0.90;;;;;;;10.23;47.22;92250.38;4993869;28;20203;-84
2024/03/10 06:38:38;;;;;;;1.40;0.90;;;;;;;10.22;47.12;92233.41;4994095;28;20208;-85
2024/03/10 06:41:05;;;;;;;1.27;0.90;;;;;;;10.18;46.53;92193.81;4994438;28;20203;-84
2024/03/10 06:43:31;;;;;;;0.73;0.73;;;;;;;10.22;46.77;92210.25;4993760;28;20523;-84
2024/03/10 06:45:57;;;;;;;1.67;1.00;;;;;;;10.44;46.56;92233.94;4994479;28;20206;-85
2024/03/10 06:48:24;;;;;;;0.77;0.77;;;;;;;10.63;46.99;92258.09;4994061;28;20192;-86
2024/03/10 06:50:50;;;;;;;2.30;0.70;;;;;;;10.66;47.38;92261.94;4995189;28;20207;-84
2024/03/10 06:53:17;;;;;;;1.10;1.00;;;;;;;10.72;46.86;92271.22;4993616;28;20224;-85
2024/03/10 06:55:45;;;;;;;2.20;1.10;;;;;;;10.86;47.16;92281.75;4994008;28;20254;-84
2024/03/10 06:58:11;;;;;;;1.03;0.80;;;;;;;10.97;47.39;92291.75;4993869;28;20740;-85
2024/03/10 07:00:39;;;;;;;1.03;0.93;;;;;;;11.06;47.56;92289.44;4993948;28;20200;-85
2024/03/10 07:03:05;;;;;;;1.57;1.00;;;;;;;11.13;47.79;92307.22;4993584;28;20227;-85
2024/03/10 07:05:33;;;;;;;2.33;0.90;;;;;;;11.20;47.31;92297.41;4993419;28;20203;-85
2024/03/10 07:08:00;;;;;;;1.30;0.80;;;;;;;11.25;47.10;92279.38;4993236;28;20215;-85
2024/03/10 07:10:27;;;;;;;0.90;0.80;;;;;;;11.30;46.68;92254.38;4993664;28;20753;-84
2024/03/10 07:12:55;;;;;;;0.97;0.70;;;;;;;11.36;47.06;92255.13;4993642;28;20227;-85
2024/03/10 07:15:22;;;;;;;0.60;0.60;;;;;;;11.34;45.92;92198.75;4993350;28;20199;-84
2024/03/10 07:17:48;;;;;;;1.03;0.90;;;;;;;11.46;45.73;92192.53;4993733;28;20669;-84
2024/03/10 07:20:15;;;;;;;3.20;0.87;;;;;;;11.47;45.35;92139.97;4993245;28;20210;-85
2024/03/10 07:22:41;;;;;;;0.70;0.70;;;;;;;11.46;45.33;92141.00;4993588;28;20231;-85
2024/03/10 07:25:10;;;;;;;0.93;0.80;;;;;;;11.58;45.58;92162.81;4993528;28;20833;-84
2024/03/10 07:27:36;;;;;;;1.13;0.70;;;;;;;11.67;45.44;92161.22;4993808;28;20238;-85
2024/03/10 07:30:05;;;;;;;0.90;0.90;;;;;;;11.90;45.43;92164.22;4993097;28;20684;-85
2024/03/10 07:32:31;;;;;;;0.60;0.60;;;;;;;12.00;45.64;92153.81;4992811;28;20306;-85
2024/03/10 07:35:00;;;;;;;0.70;0.70;;;;;;;12.07;45.48;92162.03;4991788;28;20585;-84
2024/03/10 07:37:26;;;;;;;0.70;0.70;;;;;;;12.08;45.22;92145.53;4992761;28;20206;-85
2024/03/10 07:39:53;;;;;;;0.90;0.80;;;;;;;12.14;45.35;92146.25;4992827;28;20200;-85
2024/03/10 07:42:20;;;;;;;0.70;0.70;;;;;;;12.28;45.48;92149.75;4991940;28;20231;-85
2024/03/10 07:44:46;;;;;;;0.93;0.70;;;;;;;12.42;44.51;92115.31;4992249;28;20242;-84
2024/03/10 07:47:14;;;;;;;0.70;0.70;;;;;;;12.62;44.68;92093.69;4993808;28;20226;-84
2024/03/10 07:49:40;;;;;;;0.83;0.80;;;;;;;12.80;43.54;92046.53;4993817;28;20215;-84
2024/03/10 07:52:07;;;;;;;0.80;0.80;;;;;;;12.91;43.19;92033.47;4993755;28;20301;-84
2024/03/10 07:54:34;;;;;;;1.37;0.80;;;;;;;12.88;43.10;92016.75;4993947;28;20210;-85
2024/03/10 07:57:01;;;;;;;0.80;0.80;;;;;;;12.95;42.78;92004.25;4993690;28;20207;-84
2024/03/10 07:59:28;;;;;;;0.80;0.80;;;;;;;12.71;43.43;92009.47;4994078;28;20488;-84
2024/03/10 08:01:54;;;;;;;1.00;0.80;;;;;;;12.76;43.63;92031.88;4993626;28;20203;-85
2024/03/10 08:04:22;;;;;;;0.83;0.80;;;;;;;13.10;42.58;91998.88;4993690;28;20659;-85
2024/03/10 08:06:49;;;;;;;0.80;0.80;;;;;;;13.45;42.73;92002.06;4993571;28;20286;-85
2024/03/10 08:09:17;;;;;;;0.87;0.80;;;;;;;13.58;42.70;91995.38;4993837;28;20220;-84
2024/03/10 08:11:44;;;;;;;4.80;0.90;;;;;;;13.67;42.68;92012.53;4993244;28;20202;-85
2024/03/10 08:14:11;;;;;;;1.47;0.90;;;;;;;13.73;43.13;92050.19;4993001;28;20238;-84
2024/03/10 08:16:38;;;;;;;1.53;1.13;;;;;;;13.80;43.31;92058.38;4993035;28;20257;-85
2024/03/10 08:19:04;;;;;;;1.10;0.82;;;;;;;13.85;43.10;92056.75;4993203;28;20196;-85
2024/03/10 08:21:32;;;;;;;0.90;0.90;;;;;;;13.87;43.00;92047.66;4993086;28;20207;-85
2024/03/10 08:23:59;;;;;;;3.72;0.80;;;;;;;13.93;42.16;92012.13;4992305;28;20721;-85
2024/03/10 08:26:25;;;;;;;2.30;0.90;;;;;;;13.99;42.51;92011.78;4993053;28;20207;-84
2024/03/10 08:28:52;;;;;;;1.00;1.00;;;;;;;14.12;42.63;92029.13;4993115;28;20261;-85
2024/03/10 08:31:18;;;;;;;1.15;1.00;;;;;;;14.26;43.04;92041.31;4992995;28;20211;-85
2024/03/10 08:33:44;;;;;;;1.25;1.00;;;;;;;14.25;42.87;92040.53;4991674;28;20229;-85
2024/03/10 08:36:11;;;;;;;0.93;0.82;;;;;;;14.21;43.16;92038.84;4991927;28;20258;-84
2024/03/10 08:38:39;;;;;;;1.17;0.90;;;;;;;13.98;42.68;92025.75;4993518;28;20204;-85
2024/03/10 08:41:05;;;;;;;1.98;1.02;;;;;;;13.95;43.16;92034.09;4992376;28;20728;-85
2024/03/10 08:43:32;;;;;;;0.80;0.80;;;;;;;13.91;43.55;92056.38;4992408;28;20262;-84
2024/03/10 08:46:00;;;;;;;1.35;1.20;;;;;;;13.86;43.51;92061.63;4991992;28;20258;-84
2024/03/10 08:48:26;;;;;;;1.17;1.08;;;;;;;13.82;44.14;92081.34;4991659;28;20192;-85
2024/03/10 08:50:53;;;;;;;1.10;1.00;;;;;;;13.80;44.34;92088.63;4991230;28;20781;-85
2024/03/10 08:53:19;;;;;;;1.52;0.98;;;;;;;13.80;44.42;92122.22;4991688;28;20286;-85
2024/03/10 08:55:47;;;;;;;1.35;1.05;;;;;;;13.82;45.09;92138.22;4991482;28;20207;-85
2024/03/10 08:58:13;;;;;;;2.20;1.00;;;;;;;13.89;45.11;92146.38;4991902;28;20214;-85
2024/03/10 09:00:39;;;;;;;1.10;1.00;;;;;;;13.92;45.00;92138.06;4992075;28;20234;-84
2024/03/10 09:03:06;;;;;;;1.17;1.08;;;;;;;13.96;45.11;92136.47;4991837;28;20219;-84
2024/03/10 09:05:32;;;;;;;1.27;1.00;;;;;;;13.99;44.92;92129.97;4992245;28;20243;-84
2024/03/10 09:07:59;;;;;;;1.40;1.20;;;;;;;14.00;45.25;92144.44;4992992;28;20207;-85
2024/03/10 09:10:25;;;;;;;1.25;1.05;;;;;;;13.91;45.33;92126.19;4992656;28;20207;-85
2024/03/10 09:12:53;;;;;;;1.85;1.20;;;;;;;13.92;45.49;92127.72;4992304;28;20250;-84
2024/03/10 09:15:21;;;;;;;1.17;1.00;;;;;;;13.88;45.96;92164.78;4992724;28;20199;-84
2024/03/10 09:17:48;;;;;;;1.92;1.10;;;;;;;13.88;45.87;92157.00;4993468;28;20624;-84
2024/03/10 09:20:15;;;;;;;2.08;1.20;;;;;;;13.82;45.77;92158.91;4996638;28;20223;-85
2024/03/10 09:22:41;;;;;;;2.17;1.30;;;;;;;13.79;46.14;92154.31;4995464;28;20263;-86
2024/03/10 09:25:12;;;;;;;2.38;1.40;;;;;;;13.80;46.23;92171.34;4995217;28;20222;-85
2024/03/10 09:27:40;;;;;;;1.33;1.20;;;;;;;13.77;46.45;92180.44;4995742;28;20200;-85
2024/03/10 09:30:09;;;;;;;1.30;1.17;;;;;;;13.74;47.06;92196.50;4996896;28;20677;-85
2024/03/10 09:32:35;;;;;;;1.40;1.27;;;;;;;13.72;47.66;92246.94;4995645;28;20586;-85
2024/03/10 09:35:03;;;;;;;4.97;1.50;;;;;;;13.71;48.04;92260.91;4995468;28;20269;-84
2024/03/10 09:37:30;;;;;;;1.30;1.20;;;;;;;13.73;48.29;92282.84;4995942;28;20281;-85
2024/03/10 09:39:57;;;;;;;3.30;1.45;;;;;;;13.74;48.41;92293.97;4995574;28;20210;-84
2024/03/10 09:42:25;;;;;;;1.40;1.30;;;;;;;13.77;48.31;92298.59;4995594;28;20259;-84
2024/03/10 09:44:53;;;;;;;1.85;1.52;;;;;;;13.78;48.34;92297.53;4995404;28;20320;-85
2024/03/10 09:47:21;;;;;;;2.17;1.50;;;;;;;13.77;48.80;92332.97;4996121;28;20208;-84
2024/03/10 09:49:48;;;;;;;1.90;1.70;;;;;;;13.75;48.70;92308.44;4996175;28;20605;-85
2024/03/10 09:52:15;;;;;;;2.92;2.13;;;;;;;13.75;48.17;92278.19;4996092;28;20263;-86
2024/03/10 09:54:42;;;;;;;1.83;1.63;;;;;;;13.73;48.60;92303.53;4996319;28;20235;-85
2024/03/10 09:57:08;;;;;;;1.95;1.75;;;;;;;13.71;49.16;92320.34;4996881;28;20752;-85
2024/03/10 09:59:41;;;;;;;1.70;1.60;;;;;;;13.74;49.02;92330.94;4995828;28;20212;-84
2024/03/10 10:02:18;;;;;;;2.60;1.80;;;;;;;13.77;49.06;92338.13;4995702;28;20207;-84
2024/03/10 10:04:56;;;;;;;1.95;1.75;;;;;;;13.82;49.07;92339.91;4995767;28;20266;-85
2024/03/10 10:07:26;;;;;;;3.83;2.00;;;;;;;13.84;48.79;92332.63;4996293;28;20239;-84
2024/03/10 10:09:55;;;;;;;2.42;2.00;;;;;;;13.85;49.01;92341.16;4995625;28;20651;-85
2024/03/10 10:12:22;;;;;;;4.82;2.60;;;;;;;13.82;49.23;92353.59;5001896;28;20218;-85
2024/03/10 10:14:48;;;;;;;3.33;2.35;;;;;;;13.86;49.49;92361.56;4994952;28;20209;-84
2024/03/10 10:17:17;;;;;;;3.97;2.63;;;;;;;13.87;49.82;92370.09;4995768;28;20210;-85
2024/03/10 10:19:44;;;;;;;5.03;2.10;;;;;;;13.77;49.65;92365.81;4995603;28;20227;-84
2024/03/10 10:22:12;;;;;;;3.83;2.00;;;;;;;13.80;49.41;92352.34;4996595;28;20227;-86
2024/03/10 10:24:38;;;;;;;2.15;1.80;;;;;;;13.85;49.60;92352.28;4996918;28;20224;-85
2024/03/10 10:27:05;;;;;;;3.42;1.85;;;;;;;13.86;49.78;92368.53;4996349;28;20204;-85
2024/03/10 10:29:48;;;;;;;2.40;2.20;;;;;;;13.80;51.08;92419.56;4995289;28;20265;-84
2024/03/10 10:32:14;;;;;;;2.58;1.75;;;;;;;13.87;49.56;92360.50;4995812;28;20247;-85
2024/03/10 10:34:41;;;;;;;1.63;1.30;;;;;;;13.94;47.70;92278.22;4994490;28;20520;-85
2024/03/10 10:37:07;;;;;;;2.05;1.05;;;;;;;14.07;44.33;92062.06;4996043;28;20294;-84
2024/03/10 10:39:38;;;;;;;0.88;0.60;;;;;;;14.25;41.76;91900.84;4995352;28;20208;-84
2024/03/10 10:42:07;;;;;;;0.50;0.50;;;;;;;14.48;40.41;91806.72;4995721;28;20215;-85
2024/03/10 10:44:34;;;;;;;0.40;0.40;;;;;;;14.70;40.20;91790.44;4995208;28;20750;-85
2024/03/10 10:47:00;;;;;;;0.40;0.40;;;;;;;14.88;39.41;91733.59;4994982;28;20832;-85
2024/03/10 10:49:28;;;;;;;0.60;0.60;;;;;;;15.01;39.75;91730.16;4994687;28;20868;-84
2024/03/10 10:51:56;;;;;;;0.60;0.50;;;;;;;15.14;39.10;91711.16;4994841;28;20800;-84
2024/03/10 10:57:17;;;;;;;0.50;0.50;;;;;;;15.41;39.57;91723.13;4980981;28;20665;-84
2024/03/10 10:59:59;;;;;;;0.47;0.45;;;;;;;15.45;38.20;91631.53;4995028;28;20297;-83
2024/03/10 11:02:30;;;;;;;3.45;0.50;;;;;;;15.52;37.55;91595.56;4995295;28;20215;-85
2024/03/10 11:05:04;;;;;;;0.57;0.50;;;;;;;15.68;37.82;91597.72;4994975;28;20584;-85
2024/03/10 11:07:53;;;;;;;0.50;0.50;;;;;;;15.85;37.45;91566.59;4993833;28;20254;-85
2024/03/10 11:10:42;;;;;;;1.00;0.73;;;;;;;16.08;36.99;91559.41;4994101;28;20202;-84
2024/03/10 11:13:19;;;;;;;0.40;0.40;;;;;;;16.15;36.76;91529.34;5009801;28;20226;-84
2024/03/10 11:15:53;;;;;;;0.40;0.40;;;;;;;16.19;35.98;91474.97;5012151;28;20198;-84
2024/03/10 11:18:22;;;;;;;1.55;0.50;;;;;;;16.29;35.99;91474.63;5012963;28;20202;-85
2024/03/10 11:20:49;;;;;;;1.20;0.70;;;;;;;16.44;36.89;91530.44;5012851;28;20694;-85
2024/03/10 11:23:20;;;;;;;0.95;0.40;;;;;;;16.44;35.56;91452.56;5012937;28;20223;-85
2024/03/10 11:25:54;;;;;;;0.60;0.60;;;;;;;16.54;36.04;91465.97;5011902;28;20691;-84
2024/03/10 11:29:13;;;;;;;0.65;0.50;;;;;;;16.73;35.64;91447.41;5012944;28;20206;-84
2024/03/10 11:31:41;;;;;;;1.25;0.57;;;;;;;16.98;35.64;91460.53;5013272;28;20205;-86
2024/03/10 11:34:10;;;;;;;0.50;0.50;;;;;;;17.06;35.04;91410.34;5011716;28;20277;-85
2024/03/10 11:36:59;;;;;;;0.50;0.50;;;;;;;17.14;35.06;91396.50;5012557;28;20746;-85
2024/03/10 11:39:50;;;;;;;0.50;0.50;;;;;;;17.15;35.41;91419.56;5012611;28;20262;-85
2024/03/10 11:42:20;;;;;;;1.58;0.52;;;;;;;17.16;35.10;91405.50;4958967;28;20754;-85
2024/03/10 11:44:52;;;;;;;0.50;0.50;;;;;;;17.11;34.90;91361.53;5017465;28;20230;-84
2024/03/10 11:47:23;;;;;;;0.88;0.60;;;;;;;17.15;35.00;91361.63;5014845;28;20557;-84
2024/03/10 11:49:50;;;;;;;0.63;0.50;;;;;;;17.27;34.63;91333.09;4996562;28;20200;-85
2024/03/10 11:52:25;;;;;;;0.50;0.50;;;;;;;17.56;34.03;91325.13;4992056;28;20228;-84
2024/03/10 11:55:00;;;;;;;0.68;0.50;;;;;;;17.97;34.23;91323.47;4993318;28;20294;-84
2024/03/10 11:57:46;;;;;;;0.50;0.50;;;;;;;18.17;33.65;91295.78;4992590;28;20659;-84
2024/03/10 12:00:24;;;;;;;0.40;0.40;;;;;;;18.07;33.11;91255.38;4990833;28;20273;-84
2024/03/10 12:03:13;;;;;;;0.80;0.52;;;;;;;18.07;33.41;91268.38;4992060;28;20246;-85
2024/03/10 12:08:32;;;;;;;0.77;0.57;;;;;;;17.98;33.60;91301.56;4992838;28;20290;-84
2024/03/10 12:11:05;;;;;;;0.88;0.60;;;;;;;17.92;33.60;91308.81;4992300;28;20255;-84
2024/03/10 12:13:42;;;;;;;0.43;0.40;;;;;;;17.82;33.65;91301.47;5011194;28;20314;-85
2024/03/10 12:16:13;;;;;;;1.35;0.52;;;;;;;17.82;33.92;91319.66;5011101;28;20253;-84